createdAt,value
2018-12-18T00:02:17.707Z,4.43
2018-12-18T00:04:47.718Z,4.70
2018-12-18T00:07:17.597Z,4.83
2018-12-18T00:09:47.531Z,3.87
2018-12-18T00:12:17.417Z,4.30
2018-12-18T00:14:47.351Z,4.20
2018-12-18T00:17:17.377Z,4.13
2018-12-18T00:19:47.361Z,4.00
2018-12-18T00:22:17.277Z,3.87
2018-12-18T00:24:47.105Z,4.73
2018-12-18T00:27:17.104Z,3.63
2018-12-18T00:29:47.153Z,4.03
2018-12-18T00:32:17.068Z,3.97
2018-12-18T00:34:47.054Z,4.63
2018-12-18T00:37:17.194Z,4.20
2018-12-18T00:39:47.189Z,3.97
2018-12-18T00:42:17.133Z,3.80
2018-12-18T00:44:47.021Z,4.13
2018-12-18T00:47:16.968Z,4.10
2018-12-18T00:49:46.952Z,3.87
2018-12-18T00:52:16.778Z,3.63
2018-12-18T00:54:46.784Z,3.83
2018-12-18T00:57:16.726Z,3.80
2018-12-18T00:59:46.633Z,3.90
2018-12-18T01:02:16.638Z,4.33
2018-12-18T01:04:47.409Z,4.30
2018-12-18T01:07:17.308Z,4.30
2018-12-18T01:09:47.399Z,3.87
2018-12-18T01:12:17.315Z,4.60
2018-12-18T01:14:47.287Z,4.03
2018-12-18T01:17:17.258Z,3.90
2018-12-18T01:19:47.192Z,3.50
2018-12-18T01:22:17.210Z,4.20
2018-12-18T01:24:47.201Z,4.30
2018-12-18T01:27:17.053Z,3.67
2018-12-18T01:29:47.032Z,5.20
2018-12-18T01:32:16.940Z,3.80
2018-12-18T01:34:46.754Z,3.40
2018-12-18T01:37:16.674Z,3.87
2018-12-18T01:39:46.499Z,5.10
2018-12-18T01:42:16.398Z,3.83
2018-12-18T01:44:46.236Z,4.40
2018-12-18T01:47:16.229Z,3.77
2018-12-18T01:49:46.172Z,3.60
2018-12-18T01:52:16.060Z,3.77
2018-12-18T01:54:46.006Z,3.60
2018-12-18T01:57:16.047Z,3.30
2018-12-18T01:59:46.008Z,3.53
2018-12-18T02:02:15.952Z,3.30
2018-12-18T02:04:45.844Z,3.60
2018-12-18T02:07:15.786Z,3.43
2018-12-18T02:09:45.726Z,4.40
2018-12-18T02:12:16.155Z,3.70
2018-12-18T02:14:46.114Z,3.80
2018-12-18T02:17:16.055Z,2.70
2018-12-18T02:19:45.945Z,3.37
2018-12-18T02:22:15.861Z,3.07
2018-12-18T02:24:45.674Z,3.57
2018-12-18T02:27:15.585Z,2.67
2018-12-18T02:29:45.397Z,3.27
2018-12-18T02:32:15.330Z,2.80
2018-12-18T02:34:45.268Z,2.70
2018-12-18T02:37:15.165Z,2.70
2018-12-18T02:39:45.165Z,2.70
2018-12-18T02:42:15.003Z,2.47
2018-12-18T02:44:44.990Z,2.50
2018-12-18T02:47:14.907Z,3.23
2018-12-18T02:49:44.819Z,3.40
2018-12-18T02:52:14.703Z,3.10
2018-12-18T02:54:44.580Z,2.50
2018-12-18T02:57:14.610Z,2.93
2018-12-18T02:59:44.485Z,3.00
2018-12-18T03:02:14.424Z,2.63
2018-12-18T03:04:44.338Z,2.80
2018-12-18T03:07:14.332Z,2.83
2018-12-18T03:09:44.277Z,2.47
2018-12-18T03:12:14.164Z,3.27
2018-12-18T03:14:44.285Z,3.20
2018-12-18T03:17:14.224Z,2.87
2018-12-18T03:19:44.133Z,2.93
2018-12-18T03:22:14.126Z,3.37
2018-12-18T03:24:43.942Z,3.50
2018-12-18T03:27:13.853Z,3.93
2018-12-18T03:29:43.801Z,3.87
2018-12-18T03:32:17.839Z,3.37
2018-12-18T03:34:47.750Z,3.40
2018-12-18T03:37:17.747Z,3.30
2018-12-18T03:39:47.631Z,3.37
2018-12-18T03:42:17.544Z,3.27
2018-12-18T03:44:47.612Z,3.10
2018-12-18T03:47:19.652Z,3.67
2018-12-18T03:49:49.699Z,3.90
2018-12-18T03:52:19.661Z,3.37
2018-12-18T03:54:49.473Z,3.30
2018-12-18T03:57:19.389Z,3.10
2018-12-18T03:59:49.433Z,3.50
2018-12-18T04:02:19.376Z,3.00
2018-12-18T04:04:49.366Z,3.10
2018-12-18T04:07:19.250Z,3.20
2018-12-18T04:09:49.165Z,3.40
2018-12-18T04:12:23.827Z,3.57
2018-12-18T04:14:53.984Z,3.60
2018-12-18T04:17:23.930Z,3.23
2018-12-18T04:19:53.878Z,2.97
2018-12-18T04:22:23.769Z,3.73
2018-12-18T04:24:53.672Z,4.00
2018-12-18T04:27:23.487Z,3.30
2018-12-18T04:29:53.405Z,3.17
2018-12-18T04:32:23.218Z,3.27
2018-12-18T04:34:53.130Z,3.23
2018-12-18T04:37:23.075Z,3.03
2018-12-18T04:39:53.016Z,3.37
2018-12-18T04:42:22.980Z,3.40
2018-12-18T04:44:52.820Z,2.80
2018-12-18T04:47:22.820Z,2.90
2018-12-18T04:49:52.764Z,3.27
2018-12-18T04:52:22.742Z,3.00
2018-12-18T04:54:52.756Z,3.40
2018-12-18T04:57:22.672Z,3.00
2018-12-18T04:59:52.688Z,2.60
2018-12-18T05:02:22.633Z,2.50
2018-12-18T05:04:52.550Z,3.03
2018-12-18T05:07:22.450Z,2.87
2018-12-18T05:09:52.529Z,3.47
2018-12-18T05:12:22.493Z,2.97
2018-12-18T05:14:52.419Z,2.60
2018-12-18T05:17:22.877Z,3.10
2018-12-18T05:19:52.856Z,3.63
2018-12-18T05:22:22.775Z,3.60
2018-12-18T05:24:52.690Z,3.50
2018-12-18T05:27:22.704Z,3.70
2018-12-18T05:29:52.592Z,4.23
2018-12-18T05:32:22.508Z,4.00
2018-12-18T05:34:56.490Z,4.03
2018-12-18T05:37:24.289Z,4.47
2018-12-18T05:39:54.206Z,4.37
2018-12-18T05:42:24.145Z,4.30
2018-12-18T05:44:54.136Z,4.30
2018-12-18T05:47:24.158Z,3.70
2018-12-18T05:49:53.993Z,4.77
2018-12-18T05:52:23.975Z,3.97
2018-12-18T05:54:53.930Z,4.87
2018-12-18T05:57:23.937Z,4.57
2018-12-18T05:59:53.952Z,4.37
2018-12-18T06:02:23.893Z,4.50
2018-12-18T06:04:53.884Z,4.60
2018-12-18T06:07:23.905Z,4.17
2018-12-18T06:09:53.790Z,4.73
2018-12-18T06:12:23.709Z,4.33
2018-12-18T06:14:53.554Z,4.33
2018-12-18T06:17:23.741Z,5.40
2018-12-18T06:19:53.681Z,5.07
2018-12-18T06:22:23.568Z,5.57
2018-12-18T06:24:53.493Z,4.27
2018-12-18T06:27:23.528Z,4.33
2018-12-18T06:29:53.374Z,4.33
2018-12-18T06:32:23.333Z,5.07
2018-12-18T06:34:53.145Z,4.53
2018-12-18T06:37:23.066Z,4.40
2018-12-18T06:39:52.905Z,4.47
2018-12-18T06:42:22.889Z,5.27
2018-12-18T06:44:52.836Z,4.83
2018-12-18T06:47:22.721Z,4.87
2018-12-18T06:49:52.772Z,5.27
2018-12-18T06:52:22.657Z,4.90
2018-12-18T06:54:52.564Z,5.57
2018-12-18T06:57:22.482Z,6.17
2018-12-18T06:59:52.327Z,6.27
2018-12-18T07:02:22.340Z,5.03
2018-12-18T07:04:52.234Z,5.40
2018-12-18T07:07:22.143Z,5.43
2018-12-18T07:09:51.957Z,5.03
2018-12-18T07:12:21.873Z,4.60
2018-12-18T07:14:51.812Z,5.50
2018-12-18T07:17:21.757Z,5.03
2018-12-18T07:19:51.718Z,5.27
2018-12-18T07:22:21.530Z,5.73
2018-12-18T07:24:51.444Z,6.60
2018-12-18T07:27:21.363Z,5.03
2018-12-18T07:29:51.287Z,6.10
2018-12-18T07:32:21.190Z,4.87
2018-12-18T07:34:51.063Z,6.13
2018-12-18T07:37:21.021Z,6.00
2018-12-18T07:39:50.832Z,5.27
2018-12-18T07:42:20.746Z,6.00
2018-12-18T07:44:50.588Z,5.40
2018-12-18T07:47:20.577Z,5.83
2018-12-18T07:49:50.559Z,6.17
2018-12-18T07:52:20.589Z,5.77
2018-12-18T07:54:50.557Z,6.00
2018-12-18T07:57:20.450Z,5.47
2018-12-18T07:59:50.393Z,5.77
2018-12-18T08:02:20.268Z,6.17
2018-12-18T08:04:50.186Z,6.70
2018-12-18T08:07:20.026Z,6.93
2018-12-18T08:09:50.018Z,6.20
2018-12-18T08:12:24.086Z,5.90
2018-12-18T08:14:54.078Z,5.53
2018-12-18T08:17:24.097Z,6.10
2018-12-18T08:19:54.085Z,5.90
2018-12-18T08:22:24.021Z,5.73
2018-12-18T08:24:53.921Z,6.37
2018-12-18T08:27:23.934Z,5.87
2018-12-18T08:29:53.840Z,6.30
2018-12-18T08:32:23.768Z,5.43
2018-12-18T08:34:53.707Z,5.77
2018-12-18T08:37:23.598Z,5.87
2018-12-18T08:39:53.531Z,6.30
2018-12-18T08:42:23.558Z,5.77
2018-12-18T08:44:53.457Z,6.20
2018-12-18T08:47:23.449Z,6.20
2018-12-18T08:49:53.296Z,6.07
2018-12-18T08:52:23.285Z,5.90
2018-12-18T08:54:53.228Z,5.97
2018-12-18T08:57:23.217Z,6.83
2018-12-18T08:59:53.162Z,6.33
2018-12-18T09:02:23.103Z,6.30
2018-12-18T09:04:53.017Z,6.77
2018-12-18T09:07:22.934Z,6.23
2018-12-18T09:09:53.097Z,5.80
2018-12-18T09:12:23.072Z,6.27
2018-12-18T09:15:01.484Z,6.20
2018-12-18T09:17:36.365Z,5.73
2018-12-18T09:20:06.381Z,5.57
2018-12-18T09:22:36.713Z,6.00
2018-12-18T09:25:06.674Z,5.73
2018-12-18T09:27:36.556Z,5.60
2018-12-18T09:30:07.947Z,5.17
2018-12-18T09:32:37.714Z,5.13
2018-12-18T09:35:08.453Z,5.90
2018-12-18T09:37:38.446Z,5.80
2018-12-18T09:40:10.355Z,5.53
2018-12-18T09:42:45.395Z,5.17
2018-12-18T09:45:15.253Z,5.47
2018-12-18T09:47:45.302Z,4.97
2018-12-18T09:50:15.219Z,5.67
2018-12-18T09:52:45.201Z,4.80
2018-12-18T09:55:15.379Z,5.40
2018-12-18T09:57:51.352Z,5.17
2018-12-18T10:00:21.298Z,4.93
2018-12-18T10:02:51.117Z,5.40
2018-12-18T10:05:21.230Z,5.03
2018-12-18T10:07:51.245Z,4.60
2018-12-18T10:10:21.118Z,5.40
2018-12-18T10:12:56.714Z,5.10
2018-12-18T10:15:27.372Z,5.23
2018-12-18T10:17:57.264Z,4.87
2018-12-18T10:20:27.173Z,4.67
2018-12-18T10:22:56.985Z,4.40
2018-12-18T10:25:27.005Z,4.47
2018-12-18T10:27:57.061Z,4.37
2018-12-18T10:30:26.989Z,4.90
2018-12-18T10:32:56.998Z,4.87
2018-12-18T10:35:26.921Z,4.80
2018-12-18T10:37:57.934Z,4.77
2018-12-18T10:40:27.878Z,4.53
2018-12-18T10:42:58.053Z,4.07
2018-12-18T10:45:27.915Z,4.77
2018-12-18T10:47:57.888Z,4.77
2018-12-18T10:50:27.816Z,4.03
2018-12-18T10:52:57.806Z,4.37
2018-12-18T10:55:27.881Z,4.73
2018-12-18T10:58:01.761Z,4.53
2018-12-18T11:00:36.669Z,4.33
2018-12-18T11:03:06.534Z,4.33
2018-12-18T11:05:36.598Z,4.47
2018-12-18T11:08:06.644Z,4.00
2018-12-18T11:10:36.689Z,4.37
2018-12-18T11:13:11.673Z,4.20
2018-12-18T11:15:41.613Z,4.30
2018-12-18T11:18:11.525Z,4.40
2018-12-18T11:20:41.519Z,4.17
2018-12-18T11:23:11.383Z,4.23
2018-12-18T11:25:41.365Z,4.87
2018-12-18T11:28:11.390Z,4.27
2018-12-18T11:30:41.334Z,4.33
2018-12-18T11:33:11.293Z,4.87
2018-12-18T11:35:41.131Z,3.93
2018-12-18T11:38:11.125Z,4.53
2018-12-18T11:40:40.937Z,4.07
2018-12-18T11:43:11.021Z,3.90
2018-12-18T11:45:40.997Z,4.10
2018-12-18T11:48:10.907Z,3.80
2018-12-18T11:50:41.190Z,3.97
2018-12-18T11:53:11.058Z,4.40
2018-12-18T11:55:41.052Z,3.83
2018-12-18T11:58:11.027Z,4.60
2018-12-18T12:00:41.004Z,4.30
2018-12-18T12:03:11.025Z,4.30
2018-12-18T12:05:40.932Z,4.97
2018-12-18T12:08:10.954Z,3.37
2018-12-18T12:10:40.845Z,4.43
2018-12-18T12:13:10.852Z,4.73
2018-12-18T12:15:40.677Z,4.50
2018-12-18T12:18:10.844Z,3.80
2018-12-18T12:20:40.805Z,4.47
2018-12-18T12:23:10.616Z,4.17
2018-12-18T12:25:40.533Z,4.27
2018-12-18T12:28:11.537Z,4.23
2018-12-18T12:30:41.792Z,4.60
2018-12-18T12:33:11.628Z,4.70
2018-12-18T12:35:41.657Z,4.30
2018-12-18T12:38:11.670Z,5.17
2018-12-18T12:40:41.620Z,3.97
2018-12-18T12:43:11.629Z,4.83
2018-12-18T12:45:41.802Z,4.13
2018-12-18T12:48:11.937Z,4.80
2018-12-18T12:50:42.048Z,4.47
2018-12-18T12:53:11.907Z,5.03
2018-12-18T12:55:41.901Z,5.23
2018-12-18T12:58:11.943Z,4.70
2018-12-18T13:00:41.974Z,4.10
2018-12-18T13:03:11.946Z,4.53
2018-12-18T13:05:41.944Z,5.43
2018-12-18T13:08:11.980Z,4.20
2018-12-18T13:10:41.873Z,4.73
2018-12-18T13:13:11.781Z,4.60
2018-12-18T13:15:41.724Z,4.87
2018-12-18T13:18:11.617Z,4.27
2018-12-18T13:20:41.556Z,4.50
2018-12-18T13:23:11.469Z,4.37
2018-12-18T13:25:41.462Z,4.20
2018-12-18T13:28:11.379Z,5.03
2018-12-18T13:30:41.299Z,4.67
2018-12-18T13:33:11.332Z,5.30
2018-12-18T13:35:41.264Z,4.17
2018-12-18T13:38:11.291Z,4.77
2018-12-18T13:40:41.156Z,3.80
2018-12-18T13:43:11.069Z,4.60
2018-12-18T13:45:41.386Z,4.27
2018-12-18T13:48:11.317Z,4.27
2018-12-18T13:50:41.227Z,3.73
2018-12-18T13:53:11.172Z,3.63
2018-12-18T13:55:41.085Z,3.93
2018-12-18T13:58:11.072Z,3.77
2018-12-18T14:00:40.943Z,3.67
2018-12-18T14:03:11.010Z,4.03
2018-12-18T14:05:40.976Z,4.27
2018-12-18T14:08:10.942Z,3.83
2018-12-18T14:10:40.849Z,3.60
2018-12-18T14:13:10.765Z,3.43
2018-12-18T14:15:40.682Z,3.33
2018-12-18T14:18:11.518Z,3.67
2018-12-18T14:20:42.563Z,3.73
2018-12-18T14:23:12.477Z,4.20
2018-12-18T14:25:42.419Z,3.57
2018-12-18T14:28:12.361Z,3.37
2018-12-18T14:30:42.322Z,4.30
2018-12-18T14:33:12.600Z,3.70
2018-12-18T14:35:42.564Z,3.70
2018-12-18T14:38:12.587Z,3.90
2018-12-18T14:40:42.420Z,3.57
2018-12-18T14:43:12.421Z,3.40
2018-12-18T14:45:42.281Z,2.83
2018-12-18T14:48:13.300Z,2.80
2018-12-18T14:50:43.235Z,3.27
2018-12-18T14:53:13.229Z,3.27
2018-12-18T14:55:43.129Z,3.37
2018-12-18T14:58:13.125Z,3.67
2018-12-18T15:00:43.078Z,3.80
2018-12-18T15:03:13.122Z,3.80
2018-12-18T15:05:43.102Z,3.17
2018-12-18T15:08:13.005Z,3.13
2018-12-18T15:10:42.909Z,3.17
2018-12-18T15:13:12.777Z,3.63
2018-12-18T15:15:42.740Z,4.27
2018-12-18T15:18:12.656Z,3.60
2018-12-18T15:20:42.669Z,3.83
2018-12-18T15:23:12.616Z,3.07
2018-12-18T15:25:42.509Z,3.83
2018-12-18T15:28:12.394Z,4.00
2018-12-18T15:30:42.337Z,3.67
2018-12-18T15:33:12.274Z,4.10
2018-12-18T15:35:42.570Z,3.70
2018-12-18T15:38:12.689Z,3.50
2018-12-18T15:40:42.675Z,4.13
2018-12-18T15:43:12.524Z,4.07
2018-12-18T15:45:42.465Z,4.10
2018-12-18T15:48:12.406Z,4.40
2018-12-18T15:50:42.375Z,5.13
2018-12-18T15:53:12.312Z,4.47
2018-12-18T15:55:42.257Z,4.50
2018-12-18T15:58:13.246Z,4.53
2018-12-18T16:00:43.155Z,6.40
2018-12-18T16:03:12.969Z,5.20
2018-12-18T16:05:43.187Z,4.73
2018-12-18T16:08:13.212Z,5.53
2018-12-18T16:10:43.123Z,7.00
2018-12-18T16:13:13.066Z,6.17
2018-12-18T16:15:43.360Z,6.20
2018-12-18T16:18:13.478Z,6.60
2018-12-18T16:20:43.289Z,6.23
2018-12-18T16:23:13.205Z,5.13
2018-12-18T16:25:43.021Z,6.57
2018-12-18T16:28:13.040Z,4.97
2018-12-18T16:30:42.984Z,4.80
2018-12-18T16:33:12.927Z,3.87
2018-12-18T16:35:46.082Z,5.53
2018-12-18T16:38:15.416Z,4.40
2018-12-18T16:40:45.303Z,4.10
2018-12-18T16:43:15.301Z,4.60
2018-12-18T16:45:45.237Z,4.10
2018-12-18T16:48:15.181Z,3.70
2018-12-18T16:50:45.169Z,3.70
2018-12-18T16:53:15.066Z,3.60
2018-12-18T16:55:44.968Z,3.43
2018-12-18T16:58:14.985Z,2.67
2018-12-18T17:00:44.858Z,2.67
2018-12-18T17:03:14.814Z,2.73
2018-12-18T17:05:44.634Z,3.47
2018-12-18T17:08:14.749Z,5.27
2018-12-18T17:10:44.889Z,4.67
2018-12-18T17:13:14.691Z,3.60
2018-12-18T17:15:44.604Z,2.73
2018-12-18T17:18:14.537Z,2.60
2018-12-18T17:20:44.528Z,3.37
2018-12-18T17:23:14.442Z,2.60
2018-12-18T17:25:44.314Z,3.00
2018-12-18T17:28:14.274Z,2.60
2018-12-18T17:30:44.116Z,2.20
2018-12-18T17:33:14.101Z,1.97
2018-12-18T17:35:44.194Z,2.13
2018-12-18T17:38:14.308Z,2.00
2018-12-18T17:40:44.433Z,2.70
2018-12-18T17:43:14.385Z,3.73
2018-12-18T17:45:44.300Z,2.80
2018-12-18T17:48:14.218Z,2.77
2018-12-18T17:50:44.158Z,2.90
2018-12-18T17:53:14.137Z,3.07
2018-12-18T17:55:43.954Z,2.90
2018-12-18T17:58:14.001Z,3.60
2018-12-18T18:00:44.045Z,3.40
2018-12-18T18:03:14.063Z,3.20
2018-12-18T18:05:44.048Z,3.03
2018-12-18T18:08:14.157Z,4.57
2018-12-18T18:10:44.220Z,2.90
2018-12-18T18:13:14.181Z,2.97
2018-12-18T18:15:43.989Z,2.90
2018-12-18T18:18:14.053Z,2.57
2018-12-18T18:20:43.954Z,3.60
2018-12-18T18:23:13.866Z,1.97
2018-12-18T18:25:44.035Z,2.10
2018-12-18T18:28:13.932Z,2.70
2018-12-18T18:30:44.003Z,3.03
2018-12-18T18:33:13.862Z,2.57
2018-12-18T18:35:43.823Z,2.30
2018-12-18T18:38:13.761Z,2.23
2018-12-18T18:40:43.767Z,2.70
2018-12-18T18:43:13.701Z,3.57
2018-12-18T18:45:43.695Z,3.23
2018-12-18T18:48:13.706Z,3.33
2018-12-18T18:50:43.513Z,3.73
2018-12-18T18:53:13.430Z,3.63
2018-12-18T18:55:43.268Z,4.13
2018-12-18T18:58:13.257Z,4.53
2018-12-18T19:00:43.206Z,4.33
2018-12-18T19:03:13.150Z,4.13
2018-12-18T19:05:43.140Z,3.93
2018-12-18T19:08:13.021Z,5.30
2018-12-18T19:10:43.045Z,5.00
2018-12-18T19:13:13.361Z,5.53
2018-12-18T19:15:43.341Z,5.67
2018-12-18T19:18:14.235Z,5.83
2018-12-18T19:20:44.132Z,5.50
2018-12-18T19:23:14.078Z,4.20
2018-12-18T19:25:43.874Z,4.03
2018-12-18T19:28:13.909Z,3.90
2018-12-18T19:30:43.799Z,3.50
2018-12-18T19:33:13.742Z,3.83
2018-12-18T19:35:43.728Z,3.93
2018-12-18T19:38:13.685Z,3.83
2018-12-18T19:40:43.700Z,3.87
2018-12-18T19:43:13.632Z,3.60
2018-12-18T19:45:43.624Z,3.60
2018-12-18T19:48:13.666Z,3.93
2018-12-18T19:50:43.625Z,3.77
2018-12-18T19:53:13.545Z,3.80
2018-12-18T19:55:43.362Z,3.80
2018-12-18T19:58:13.219Z,3.17
2018-12-18T20:00:43.082Z,3.40
2018-12-18T20:03:13.025Z,3.10
2018-12-18T20:05:43.080Z,3.00
2018-12-18T20:08:13.088Z,2.93
2018-12-18T20:10:43.190Z,3.30
2018-12-18T20:13:13.101Z,3.07
2018-12-18T20:15:43.114Z,3.90
2018-12-18T20:18:13.125Z,3.70
2018-12-18T20:20:43.116Z,3.17
2018-12-18T20:23:13.037Z,4.03
2018-12-18T20:25:42.922Z,3.40
2018-12-18T20:28:13.093Z,3.90
2018-12-18T20:30:43.108Z,4.10
2018-12-18T20:33:13.467Z,4.47
2018-12-18T20:35:43.437Z,4.70
2018-12-18T20:38:16.860Z,4.07
2018-12-18T20:40:46.031Z,5.13
2018-12-18T20:43:16.211Z,4.63
2018-12-18T20:45:46.500Z,4.07
2018-12-18T20:48:16.667Z,4.70
2018-12-18T20:50:47.070Z,4.27
2018-12-18T20:53:16.937Z,4.27
2018-12-18T20:55:47.056Z,3.70
2018-12-18T20:58:16.989Z,3.60
2018-12-18T21:00:46.935Z,3.97
2018-12-18T21:03:16.893Z,4.00
2018-12-18T21:05:46.705Z,3.90
2018-12-18T21:08:23.214Z,4.73
2018-12-18T21:10:49.026Z,4.93
2018-12-18T21:13:23.829Z,4.17
2018-12-18T21:15:53.636Z,4.03
2018-12-18T21:18:23.945Z,3.83
2018-12-18T21:20:54.375Z,3.77
2018-12-18T21:23:24.370Z,4.50
2018-12-18T21:25:54.262Z,4.13
2018-12-18T21:28:24.449Z,3.27
2018-12-18T21:30:54.394Z,3.77
2018-12-18T21:33:24.302Z,3.07
2018-12-18T21:35:54.298Z,3.50
2018-12-18T21:38:30.050Z,3.33
2018-12-18T21:40:56.091Z,3.20
2018-12-18T21:43:26.097Z,3.70
2018-12-18T21:45:56.024Z,2.93
2018-12-18T21:48:26.129Z,3.17
2018-12-18T21:50:56.140Z,2.97
2018-12-18T21:53:25.980Z,3.47
2018-12-18T21:55:56.046Z,2.83
2018-12-18T21:58:25.940Z,3.30
2018-12-18T22:00:55.904Z,3.23
2018-12-18T22:03:25.719Z,3.00
2018-12-18T22:05:55.645Z,2.80
2018-12-18T22:08:25.509Z,2.97
2018-12-18T22:10:55.434Z,2.90
2018-12-18T22:13:25.425Z,3.07
2018-12-18T22:15:55.317Z,3.00
2018-12-18T22:18:25.371Z,2.37
2018-12-18T22:20:55.223Z,2.57
2018-12-18T22:23:25.234Z,3.07
2018-12-18T22:25:55.652Z,2.57
2018-12-18T22:28:26.161Z,2.40
2018-12-18T22:30:56.172Z,2.70
2018-12-18T22:33:26.134Z,3.07
2018-12-18T22:35:55.991Z,2.73
2018-12-18T22:38:26.541Z,2.00
2018-12-18T22:40:56.450Z,2.40
2018-12-18T22:43:26.727Z,2.03
2018-12-18T22:45:56.978Z,2.70
2018-12-18T22:48:27.861Z,1.90
2018-12-18T22:50:57.886Z,2.20
2018-12-18T22:53:27.901Z,2.90
2018-12-18T22:55:57.621Z,2.57
2018-12-18T22:58:27.420Z,2.13
2018-12-18T23:01:07.328Z,3.17
2018-12-18T23:03:37.317Z,2.53
2018-12-18T23:06:07.200Z,2.30
2018-12-18T23:08:37.217Z,3.10
2018-12-18T23:11:07.313Z,2.37
2018-12-18T23:13:37.255Z,3.00
2018-12-18T23:16:07.197Z,2.83
2018-12-18T23:18:37.141Z,3.50
2018-12-18T23:21:07.205Z,2.37
2018-12-18T23:23:37.125Z,2.90
2018-12-18T23:26:07.032Z,2.77
2018-12-18T23:28:37.081Z,2.53
2018-12-18T23:31:06.974Z,2.27
2018-12-18T23:33:37.256Z,2.60
2018-12-18T23:36:07.231Z,2.33
2018-12-18T23:38:37.252Z,2.40
2018-12-18T23:41:07.241Z,2.70
2018-12-18T23:43:37.056Z,2.57
2018-12-18T23:46:06.976Z,2.97
2018-12-18T23:48:39.838Z,3.07
2018-12-18T23:51:09.112Z,2.80
2018-12-18T23:53:39.169Z,2.40
2018-12-18T23:56:08.982Z,3.00
2018-12-18T23:58:39.233Z,2.47
